Terminal Aerodrome Forecast
Issued by NWS

Home | Current Version | Previous Version | Text Only | Print | Product List | Glossary On
Versions: 1 2 3 4 5 6 7 8 9 10 11 12 13 14 15 16 17 18
000
FTUS41 KPBZ 021100
TAFZZV
TAF
KZZV 021139Z 0212/0312 32014KT P6SM OVC017
     FM021700 29006KT P6SM BKN025
     FM022100 27006KT P6SM BKN250
     FM030600 VRB03KT P6SM OVC080=

USA.gov is the U.S. government's official web portal to all federal, state and local government web resources and services.